Flight Track Log - Related Links

Times and Time Zones

All times are in EDT time to prevent confusion due to time zone crossing. See the AFL1861 flight status page for this flight to view local times or setup timezone preferences in your user account.

Time Position Orientation Groundspeed Altitude Reporting Facility
EDT Latitude Longitude Course Direction KTS MPH feet Rate Location/Type
Mon 07:49:00 AM 43.2815 44.0393 344° North  Level Estimated
Mon 07:50:00 AM 43.3804 43.9997 344° North  Level Estimated
Mon 07:51:00 AM 43.4793 43.9601 344° North  Level Estimated
Mon 07:52:00 AM 43.5782 43.9203 344° North  Level Estimated
Mon 07:53:00 AM 43.6771 43.8804 344° North  Level Estimated
Mon 07:54:00 AM 43.7759 43.8403 344° North  Level Estimated
Mon 07:55:00 AM 43.8748 43.8001 344° North  Level Estimated
Mon 07:56:00 AM 43.9736 43.7598 344° North  Level Estimated
Mon 07:57:00 AM 44.0724 43.7193 344° North  Level Estimated
Mon 07:58:00 AM 44.1712 43.6788 344° North  Level Estimated
Mon 07:59:00 AM 44.2700 43.6380 344° North  Level Estimated
Mon 08:00:00 AM 44.3688 43.5972 344° North  Level Estimated
Mon 08:01:00 AM 44.4675 43.5562 343° North  Level Estimated
Mon 08:02:00 AM 44.5663 43.5150 343° North  Level Estimated
Mon 08:03:00 AM 44.6650 43.4737 343° North  Level Estimated
Mon 08:04:00 AM 44.7637 43.4323 343° North  Level Estimated
Mon 08:05:00 AM 44.8624 43.3908 343° North  Level Estimated
Mon 08:06:00 AM 44.9611 43.3490 343° North  Level Estimated
Mon 08:07:00 AM 45.0598 43.3072 343° North  Level Estimated
Mon 08:08:00 AM 45.1585 43.2652 343° North  Level Estimated
Mon 08:09:00 AM 45.2571 43.2231 343° North  Level Estimated
Mon 08:10:00 AM 45.3557 43.1808 343° North  Level Estimated
Mon 08:11:00 AM 45.4543 43.1383 343° North  Level Estimated
Mon 08:12:00 AM 45.5529 43.0958 343° North  Level Estimated
Mon 08:13:00 AM 45.6515 43.0530 343° North  Level Estimated
Mon 08:14:00 AM 45.7500 43.0101 343° North  Level Estimated
Mon 08:15:00 AM 45.8486 42.9671 343° North  Level Estimated
Mon 08:16:00 AM 45.9471 42.9239 343° North  Level Estimated
Mon 08:17:00 AM 46.0456 42.8806 343° North  Level Estimated
Mon 08:18:00 AM 46.1441 42.8371 343° North  Level Estimated
Mon 08:19:00 AM 46.2426 42.7934 343° North  Level Estimated
Mon 08:20:00 AM 46.3411 42.7496 343° North  Level Estimated
Mon 08:21:00 AM 46.4395 42.7056 343° North  Level Estimated
Mon 08:22:00 AM 46.5379 42.6615 343° North  Level Estimated
Mon 08:23:00 AM 46.6364 42.6172 343° North  Level Estimated
Mon 08:24:00 AM 46.7347 42.5728 343° North  Level Estimated
Mon 08:25:00 AM 46.8331 42.5282 343° North  Level Estimated
Mon 08:26:00 AM 46.9315 42.4834 343° North  Level Estimated
Mon 08:27:00 AM 47.0298 42.4384 343° North  Level Estimated
Mon 08:28:00 AM 47.1282 42.3933 343° North  Level Estimated
Mon 08:29:00 AM 47.2265 42.3481 343° North  Level Estimated
Mon 08:30:00 AM 47.3247 42.3026 343° North  Level Estimated
Mon 08:31:00 AM 47.4230 42.2570 343° North  Level Estimated
Mon 08:32:00 AM 47.5213 42.2112 343° North  Level Estimated
Mon 08:33:00 AM 47.6195 42.1653 343° North  Level Estimated
Mon 08:34:00 AM 47.7177 42.1192 342° North  Level Estimated
Mon 08:35:00 AM 47.8159 42.0729 342° North  Level Estimated
Mon 08:36:00 AM 47.9141 42.0264 342° North  Level Estimated
Mon 08:37:00 AM 48.0123 41.9797 342° North  Level Estimated
Mon 08:38:00 AM 48.1104 41.9329 342° North  Level Estimated
Mon 08:39:00 AM 48.2085 41.8859 342° North  Level Estimated
Mon 08:40:00 AM 48.3066 41.8387 342° North  Level Estimated
Mon 08:41:00 AM 48.4047 41.7913 342° North  Level Estimated
Mon 08:42:00 AM 48.5028 41.7438 342° North  Level Estimated
Mon 08:43:00 AM 48.6008 41.6960 342° North  Level Estimated
Mon 08:44:00 AM 48.6988 41.6481 342° North  Level Estimated
Mon 08:45:00 AM 48.7968 41.6000 342° North  Level Estimated
Mon 08:46:00 AM 48.8948 41.5517 342° North  Level Estimated
Mon 08:47:00 AM 48.9928 41.5032 342° North  Level Estimated
Mon 08:48:00 AM 49.0907 41.4545 342° North  Level Estimated
Mon 08:49:00 AM 49.1887 41.4057 342° North  Level Estimated
Mon 08:50:00 AM 49.2866 41.3566 342° North  Level Estimated
Mon 08:51:00 AM 49.3844 41.3073 342° North  Level Estimated
Mon 08:52:00 AM 49.4823 41.2579 342° North  Level Estimated
Mon 08:53:00 AM 49.5802 41.2082 342° North  Level Estimated
Mon 08:54:00 AM 49.6780 41.1584 342° North  Level Estimated
Mon 08:55:00 AM 49.7758 41.1083 342° North  Level Estimated
Mon 08:56:00 AM 49.8735 41.0580 342° North  Level Estimated
Mon 08:57:00 AM 49.9713 41.0076 342° North  Level Estimated
Mon 08:58:00 AM 50.0690 40.9569 342° North  Level Estimated
Mon 08:59:00 AM 50.1667 40.9060 342° North  Level Estimated
Mon 09:00:00 AM 50.2644 40.8550 342° North  Level Estimated
Mon 09:01:00 AM 50.3621 40.8037 341° North  Level Estimated
Mon 09:02:00 AM 50.4597 40.7522 341° North  Level Estimated
Mon 09:03:00 AM 50.5574 40.7004 341° North  Level Estimated
Mon 09:04:00 AM 50.6549 40.6485 341° North  Level Estimated
Mon 09:05:00 AM 50.7525 40.5964 341° North  Level Estimated
Mon 09:06:00 AM 50.8501 40.5440 341° North  Level Estimated
Mon 09:07:00 AM 50.9476 40.4914 341° North  Level Estimated
Mon 09:08:00 AM 51.0451 40.4386 341° North  Level Estimated
Mon 09:09:00 AM 51.1426 40.3856 341° North  Level Estimated
Mon 09:10:00 AM 51.2400 40.3323 341° North  Level Estimated
Mon 09:11:00 AM 51.3374 40.2788 341° North  Level Estimated
Mon 09:12:00 AM 51.4349 40.2251 341° North  Level Estimated
Mon 09:13:00 AM 51.5322 40.1712 341° North  Level Estimated
Mon 09:14:00 AM 51.6296 40.1170 341° North  Level Estimated
Mon 09:15:00 AM 51.7269 40.0626 341° North  Level Estimated
Mon 09:16:00 AM 51.8242 40.0080 341° North  Level Estimated
Mon 09:17:00 AM 51.9215 39.9531 341° North  Level Estimated
Mon 09:18:00 AM 52.0188 39.8980 341° North  Level Estimated
Mon 09:19:00 AM 52.1160 39.8426 341° North  Level Estimated
Mon 09:20:00 AM 52.2132 39.7870 341° North  Level Estimated
Mon 09:21:00 AM 52.3104 39.7312 341° North  Level Estimated
Mon 09:22:00 AM 52.4075 39.6751 341° North  Level Estimated
Mon 09:23:00 AM 52.5047 39.6188 341° North  Level Estimated
Mon 09:24:00 AM 52.6017 39.5622 341° North  Level Estimated
Mon 09:25:00 AM 52.6988 39.5054 340° North  Level Estimated
Mon 09:26:00 AM 52.7959 39.4483 340° North  Level Estimated
Mon 09:27:00 AM 52.8929 39.3909 340° North  Level Estimated
Mon 09:28:00 AM 52.9899 39.3333 340° North  Level Estimated
Mon 09:29:00 AM 53.0868 39.2755 340° North  Level Estimated
Mon 09:30:00 AM 53.1838 39.2174 340° North  Level Estimated
Mon 09:31:00 AM 53.2807 39.1590 340° North  Level Estimated
Mon 09:32:00 AM 53.3775 39.1003 340° North  Level Estimated
Mon 09:33:00 AM 53.4744 39.0414 340° North  Level Estimated
Mon 09:34:00 AM 53.5712 38.9822 340° North  Level Estimated
Mon 09:35:00 AM 53.6680 38.9228 340° North  Level Estimated
Mon 09:36:00 AM 53.7647 38.8631 340° North  Level Estimated
Mon 09:36:17 AM 55.1734 37.3619 North 400 460 27,600  Level FlightAware ADS-B
Mon 09:36:48 AM 55.2267 37.3654 North 387 445 26,700 -1,529 Descending FlightAware ADS-B
Mon 09:37:08 AM 55.2623 37.3656 359° North 375 432 26,300 -2,040 Descending FlightAware ADS-B
Mon 09:37:38 AM 55.3149 37.3633 358° North 374 430 25,000 -2,500 Descending FlightAware ADS-B
Mon 09:38:08 AM 55.3683 37.3609 359° North 370 426 23,800 -1,800 Descending FlightAware ADS-B
Mon 09:38:38 AM 55.4175 37.3592 359° North 359 413 23,200 -800 Descending FlightAware ADS-B
Mon 09:39:08 AM 55.4653 37.3581 360° North 342 394 23,000 -200 Descending FlightAware ADS-B
Mon 09:39:38 AM 55.5117 37.3573 360° North 329 379 23,000  Level FlightAware ADS-B
Mon 09:40:16 AM 55.5704 37.3563 360° North 332 382 23,000  Level FlightAware ADS-B
Mon 09:40:53 AM 55.6240 37.3552 359° North 343 395 23,000 -83 Level FlightAware ADS-B
Mon 09:41:28 AM 55.6827 37.3534 359° North 340 391 22,900 -1,015 Descending FlightAware ADS-B
Mon 09:41:58 AM 55.7293 37.3527 North 343 395 21,900 -1,900 Descending FlightAware ADS-B
Mon 09:42:28 AM 55.7772 37.3613 North 335 386 21,000 -1,800 Descending FlightAware ADS-B
Mon 09:42:58 AM 55.8214 37.3717 North 333 383 20,100 -1,700 Descending FlightAware ADS-B
Mon 09:43:28 AM 55.8682 37.3837 North 320 368 19,300 -2,000 Descending FlightAware ADS-B
Mon 09:43:58 AM 55.9088 37.3950 North 318 366 18,100 -2,250 Descending FlightAware ADS-B
Mon 09:44:40 AM 55.9715 37.4126 North 312 359 16,600 -2,143 Descending FlightAware ADS-B
Mon 09:47:00 AM 55.9726 37.4146 45° Northeast  Level Estimated
Mon 09:48:00 AM 55.9726 37.4146 North  Level Estimated
Mon 09:49:00 AM 55.9726 37.4146 North  Level Estimated
Mon 09:50:00 AM 55.9726 37.4146 North  Level Estimated
Mon 09:51:00 AM 55.9726 37.4146 North  Level Estimated
Mon 09:52:00 AM 55.9726 37.4146 North  Level Estimated
Mon 09:53:00 AM 55.9726 37.4146 North  Level Estimated
Mon 09:54:00 AM 55.9726 37.4146 North  Level Estimated
Mon 09:55:00 AM 55.9726 37.4146 North  Level Estimated
Mon 09:56:00 AM 55.9726 37.4146 North  Level Estimated
Mon 09:57:00 AM 55.9726 37.4146 North  Level Estimated
Mon 09:58:00 AM 55.9726 37.4146 North  Level Estimated
Mon 09:59:00 AM 55.9726 37.4146 North  Level Estimated
Mon 10:00:00 AM 55.9726 37.4146 North  Level Estimated

Login

Don't have an account? Register now (free) for customized features, flight alerts, and more!